WetterOnline ( https://www.wetteronline.de )

Wetter aktuell Königswinter

Aktuelles Wetter: Königswinter-Heiderhof (147m)

6-stündlich | Neueste Meldungen
Ortszeit Temperatur Wetter
Mi, 29.05. 14:00 18.9° C bewölkt
Mi, 29.05. 8:00 14.7° C Sprühregen
Mi, 29.05. 2:00 14.4° C leichter Regen
Di, 28.05. 20:00 15.7° C leichter Regen
Di, 28.05. 14:00 16.2° C bewölkt
Di, 28.05. 8:00 11.5° C wolkenlos
Di, 28.05. 2:00 11.9° C bedeckt
Mo, 27.05. 20:00 14.7° C leichter Regen
Ortszeit Temperatur Wetter
Mi, 29.05. 14:30 19.0° C bedeckt
Mi, 29.05. 14:20 19.0° C bedeckt
Mi, 29.05. 14:10 18.8° C bewölkt
Mi, 29.05. 14:00 18.9° C bewölkt
Mi, 29.05. 13:50 18.9° C bewölkt
Mi, 29.05. 13:40 19.4° C bewölkt
Mi, 29.05. 13:30 18.4° C bedeckt
Mi, 29.05. 13:00 17.6° C wolkig
Mi, 29.05. 12:30 16.4° C leichter Regen
Mi, 29.05. 12:00 15.8° C Regen
Mi, 29.05. 11:30 15.4° C bewölkt
Ortszeit Relative Feuchte Sichtweite
Mi, 29.05. 14:00 64% >70 km
Mi, 29.05. 8:00 85% 30 km
Mi, 29.05. 2:00 86% 60 km
Di, 28.05. 20:00 74% 55 km
Di, 28.05. 14:00 74% 45 km
Di, 28.05. 8:00 82% 55 km
Di, 28.05. 2:00 89% 60 km
Mo, 27.05. 20:00 89% 40 km
Ortszeit Relative Feuchte Sichtweite
Mi, 29.05. 14:30 63% >70 km
Mi, 29.05. 14:20 63% -
Mi, 29.05. 14:10 67% -
Mi, 29.05. 14:00 64% >70 km
Mi, 29.05. 13:50 64% -
Mi, 29.05. 13:40 64% -
Mi, 29.05. 13:30 70% >70 km
Mi, 29.05. 13:00 77% >70 km
Mi, 29.05. 12:30 84% 65 km
Mi, 29.05. 12:00 87% 60 km
Mi, 29.05. 11:30 85% >70 km
Ortszeit Niederschlagsmenge Niederschlagsart
Mi, 29.05. 14:00 0.7 l/m2 in 6 Std. Regen
Mi, 29.05. 8:00 0.6 l/m2 in 12 Std. Regen
Mi, 29.05. 2:00 0.1 l/m2 in 6 Std. Regen
Di, 28.05. 20:00 1 l/m2 in 12 Std. Regen
Di, 28.05. 14:00 0.5 l/m2 in 6 Std. Regen
Di, 28.05. 8:00 0.1 l/m2 in 12 Std. -
Di, 28.05. 2:00 0.1 l/m2 in 6 Std. Regen
Mo, 27.05. 20:00 2 l/m2 in 12 Std. Regen
Ortszeit Niederschlagsmenge Niederschlagsart
Mi, 29.05. 14:30 0.0 l/m2 in 30 Min -
Mi, 29.05. 14:20 keine Meldung -
Mi, 29.05. 14:10 keine Meldung -
Mi, 29.05. 14:00 0.0 l/m2 in 1 Std. Regen
Mi, 29.05. 13:50 keine Meldung -
Mi, 29.05. 13:40 keine Meldung -
Mi, 29.05. 13:30 0.0 l/m2 in 30 Min -
Mi, 29.05. 13:00 <0.05 l/m2 in 1 Std. Regen
Mi, 29.05. 12:30 <0.05 l/m2 in 30 Min -
Mi, 29.05. 12:00 0.4 l/m2 in 1 Std. Regen
Mi, 29.05. 11:30 0.4 l/m2 in 30 Min Schneeregen
Ortszeit Stärke Spitze Richtung
km/h Bft. km/h Grad Sektor
Mi, 29.05. 14:00 22 4 35 220° SW
Mi, 29.05. 8:00 19 3 30 180° S
Mi, 29.05. 2:00 11 2 32 180° S
Di, 28.05. 20:00 6 1 37 210° SW
Di, 28.05. 14:00 9 2 30 120° SO
Di, 28.05. 8:00 11 2 25 200° S
Di, 28.05. 2:00 17 3 24 260° W
Mo, 27.05. 20:00 4 1 25 20° N
Ortszeit Stärke Spitze Richtung
km/h Bft. km/h Grad Sektor
Mi, 29.05. 14:30 22 4 32 210° SW
Mi, 29.05. 14:20 22 4 - 210° SW
Mi, 29.05. 14:10 18 3 - 210° SW
Mi, 29.05. 14:00 22 4 35 220° SW
Mi, 29.05. 13:50 22 4 - 220° SW
Mi, 29.05. 13:40 20 4 - 210° SW
Mi, 29.05. 13:30 19 3 33 200° S
Mi, 29.05. 13:00 18 3 29 200° S
Mi, 29.05. 12:30 13 3 24 210° SW
Mi, 29.05. 12:00 18 3 29 200° S
Mi, 29.05. 11:30 18 3 25 210° SW
Ortszeit Untergrenze Bedeckung Gattung
total tief tief mittel hoch
Mi, 29.05. 14:00 1050 m 7/8 7/8 - - -
Mi, 29.05. 8:00 1350 m 8/8 8/8 - - -
Mi, 29.05. 2:00 2100 m 8/8 8/8 - - -
Di, 28.05. 20:00 1500 m 8/8 8/8 - - -
Di, 28.05. 14:00 1200 m 7/8 7/8 - - -
Di, 28.05. 8:00 - 0/8 0/8 - - -
Di, 28.05. 2:00 480 m 8/8 8/8 - - -
Mo, 27.05. 20:00 1260 m 8/8 8/8 - - -
Ortszeit Bedeckungsgrad in Achtel und Wolkenuntergrenze
Mi, 29.05. 14:30 3(1050m) 6(1500m) 8(2100m)
Mi, 29.05. 14:20 3(1050m) 6(1500m) 8(2100m)
Mi, 29.05. 14:10 7
Mi, 29.05. 14:00 3(1050m) 7(1500m) 7(2100m)
Mi, 29.05. 13:50 3(1050m) 7(1500m) 7(2100m)
Mi, 29.05. 13:40 7
Mi, 29.05. 13:30 2(750m) 7(1110m) 8(2400m)
Mi, 29.05. 13:00 2(900m) 7(3000m) 7(5400m)
Mi, 29.05. 12:30 1(1110m) 7(2400m) 8(3300m)
Mi, 29.05. 12:00 4(1230m) 8(3600m) 8(4200m)
Mi, 29.05. 11:30 4(1020m) 7(1440m) 7(1500m)
Ortszeit Luftdruck NN (hPa) Tendenz (hPa in 3 Std.)
Mi, 29.05. 14:00 1010 - 1,3
Mi, 29.05. 8:00 1012 - 1,1
Mi, 29.05. 2:00 1015 - 1,1
Di, 28.05. 20:00 1017 - 0,2
Di, 28.05. 14:00 1019 - 1,3
Di, 28.05. 8:00 1020 + 0,8
Di, 28.05. 2:00 1019 + 0,4
Mo, 27.05. 20:00 1017 + 0,5
Ortszeit Luftdruck NN (hPa) Tendenz (hPa in 3 Std.)
Mi, 29.05. 14:30 1010 - 1,6
Mi, 29.05. 14:20 1010 keine Meldung
Mi, 29.05. 14:10 1010 keine Meldung
Mi, 29.05. 14:00 1010 - 1,3
Mi, 29.05. 13:50 1010 keine Meldung
Mi, 29.05. 13:40 1010 keine Meldung
Mi, 29.05. 13:30 1011 - 1,1
Mi, 29.05. 13:00 1011 - 0,9
Mi, 29.05. 12:30 1011 - 0,6
Mi, 29.05. 12:00 1012 - 0,4
Mi, 29.05. 11:30 1012 - 0,3
Ortszeit Schneehöhe (cm)
Mi, 29.05. 14:00 0
Mi, 29.05. 8:00 0
Mi, 29.05. 2:00 0
Di, 28.05. 20:00 0
Di, 28.05. 14:00 0
Di, 28.05. 8:00 0
Di, 28.05. 2:00 0
Mo, 27.05. 20:00 0
Ortszeit Schneehöhe (cm)
Mi, 29.05. 14:30 -
Mi, 29.05. 14:20 0
Mi, 29.05. 14:10 -
Mi, 29.05. 14:00 0
Mi, 29.05. 13:50 0
Mi, 29.05. 13:40 -
Mi, 29.05. 13:30 0
Mi, 29.05. 13:00 0
Mi, 29.05. 12:30 0
Mi, 29.05. 12:00 0
Mi, 29.05. 11:30 0
Link zu dieser Seite / Seite empfehlen

Das Wetter in ...